Time;durP1;ratioP1;P1;durP2;ratioP2;P2;SDS_P1;SDS_P2;PMS_P1;PMS_P2;Temp;Humidity;BMP_temperature;BMP_pressure;BME280_temperature;BME280_humidity;BME280_pressure;Samples;Min_cycle;Max_cycle;Signal;HPM_P1;HPM_P2
2023/10/24 00:01:03;;;;;;;10.52;5.25;;;25.50;52.50;;;;;;5093963;28;20032;-71
2023/10/24 00:03:29;;;;;;;14.40;6.15;;;25.50;52.50;;;;;;5078850;28;20032;-71
2023/10/24 00:05:56;;;;;;;8.73;5.70;;;25.50;52.50;;;;;;5113150;28;20023;-71
2023/10/24 00:08:22;;;;;;;10.60;5.63;;;25.50;52.50;;;;;;5112495;28;20027;-70
2023/10/24 00:10:48;;;;;;;9.75;5.45;;;25.40;52.60;;;;;;5094954;28;20141;-70
2023/10/24 00:13:14;;;;;;;11.32;5.43;;;25.40;52.60;;;;;;5110227;28;20099;-71
2023/10/24 00:15:40;;;;;;;15.60;5.40;;;25.40;52.50;;;;;;5092243;28;20054;-70
2023/10/24 00:18:07;;;;;;;11.07;5.35;;;25.40;52.60;;;;;;5076014;28;20119;-70
2023/10/24 00:20:33;;;;;;;12.45;6.22;;;25.40;52.60;;;;;;5093793;28;20043;-70
2023/10/24 00:22:59;;;;;;;12.82;5.93;;;25.30;52.50;;;;;;5082083;28;20115;-70
2023/10/24 00:25:25;;;;;;;7.82;5.22;;;25.40;52.60;;;;;;5094014;28;20051;-70
2023/10/24 00:27:51;;;;;;;9.50;5.85;;;25.40;52.60;;;;;;5076627;28;20036;-71
2023/10/24 00:30:17;;;;;;;11.23;5.57;;;25.30;52.60;;;;;;5093298;28;20035;-70
2023/10/24 00:32:43;;;;;;;13.80;5.60;;;25.30;52.60;;;;;;5102154;28;20039;-70
2023/10/24 00:35:09;;;;;;;12.30;5.40;;;25.40;52.70;;;;;;5074809;28;20040;-70
2023/10/24 00:37:35;;;;;;;12.43;5.22;;;25.30;52.70;;;;;;5112213;28;20040;-70
2023/10/24 00:40:02;;;;;;;13.25;5.53;;;25.30;52.70;;;;;;5112310;28;20483;-70
2023/10/24 00:42:29;;;;;;;10.88;5.70;;;25.30;52.70;;;;;;5094361;28;20053;-70
2023/10/24 00:44:55;;;;;;;9.05;5.38;;;25.30;52.80;;;;;;5109863;28;20613;-71
2023/10/24 00:47:20;;;;;;;11.10;5.07;;;25.30;52.90;;;;;;5069479;28;20048;-71
2023/10/24 00:49:47;;;;;;;9.93;5.00;;;25.30;53.00;;;;;;5052500;28;20037;-70
2023/10/24 00:52:13;;;;;;;11.65;5.40;;;25.30;53.00;;;;;;5069237;28;20048;-70
2023/10/24 00:54:39;;;;;;;10.13;5.90;;;25.30;53.00;;;;;;5075806;28;20048;-70
2023/10/24 00:57:06;;;;;;;13.02;5.78;;;25.30;53.00;;;;;;5066854;28;20379;-70
2023/10/24 00:59:34;;;;;;;9.27;4.95;;;25.20;53.10;;;;;;5044289;28;20044;-71
2023/10/24 01:02:00;;;;;;;11.80;5.68;;;25.30;53.10;;;;;;5016230;28;20112;-70
2023/10/24 01:04:26;;;;;;;9.88;5.63;;;25.30;53.00;;;;;;5036246;28;20037;-71
2023/10/24 01:06:52;;;;;;;12.27;6.10;;;25.30;53.00;;;;;;5012645;28;20049;-70
2023/10/24 01:09:19;;;;;;;11.63;5.88;;;25.30;53.10;;;;;;5029165;28;20045;-70
2023/10/24 01:11:45;;;;;;;13.88;5.03;;;25.30;53.10;;;;;;5028929;28;20421;-70
2023/10/24 01:14:11;;;;;;;8.63;5.35;;;25.40;53.00;;;;;;5018119;28;20037;-70
2023/10/24 01:16:44;;;;;;;12.40;6.03;;;25.30;53.00;;;;;;5047137;28;20827;-71
2023/10/24 01:19:11;;;;;;;10.73;4.95;;;25.30;53.00;;;;;;5065766;28;20435;-70
2023/10/24 01:21:44;;;;;;;11.70;5.65;;;25.30;53.00;;;;;;5068484;28;20041;-71
2023/10/24 01:24:13;;;;;;;10.10;4.93;;;25.20;53.00;;;;;;5047308;28;20150;-70
2023/10/24 01:26:40;;;;;;;11.02;5.38;;;25.30;53.00;;;;;;5040096;28;20036;-70
2023/10/24 01:29:07;;;;;;;10.05;5.15;;;25.30;53.00;;;;;;5066926;28;20115;-70
2023/10/24 01:31:33;;;;;;;12.23;5.57;;;25.20;53.00;;;;;;5066883;28;20504;-70
2023/10/24 01:33:59;;;;;;;8.50;5.82;;;25.10;53.00;;;;;;5089565;28;20123;-71
2023/10/24 01:36:25;;;;;;;10.65;5.28;;;25.10;53.00;;;;;;5073343;28;20107;-71
2023/10/24 01:38:52;;;;;;;10.00;5.75;;;25.10;53.00;;;;;;5082529;28;20039;-70
2023/10/24 01:41:19;;;;;;;7.63;4.78;;;25.10;53.00;;;;;;5076895;28;20156;-71
2023/10/24 01:43:45;;;;;;;13.25;5.53;;;25.10;53.10;;;;;;5075389;28;20065;-70
2023/10/24 01:46:11;;;;;;;11.25;5.20;;;25.00;53.10;;;;;;5081176;28;20211;-71
2023/10/24 01:48:38;;;;;;;11.60;5.45;;;25.20;53.20;;;;;;5059640;28;20379;-71
2023/10/24 01:51:04;;;;;;;10.73;4.85;;;25.10;53.20;;;;;;5073022;28;20041;-71
2023/10/24 01:53:30;;;;;;;11.45;5.28;;;25.20;53.20;;;;;;5110225;28;20038;-71
2023/10/24 01:55:56;;;;;;;12.63;5.28;;;25.20;53.20;;;;;;5092791;28;20036;-71
2023/10/24 01:58:22;;;;;;;9.15;5.15;;;25.20;53.20;;;;;;5074849;28;20553;-71
2023/10/24 02:00:48;;;;;;;12.25;5.10;;;25.10;53.30;;;;;;5099367;28;20073;-71
2023/10/24 02:03:14;;;;;;;10.50;5.30;;;25.00;53.30;;;;;;5091276;28;20499;-70
2023/10/24 02:05:40;;;;;;;12.63;4.75;;;25.20;53.20;;;;;;5073896;28;20164;-71
2023/10/24 02:08:06;;;;;;;8.93;5.43;;;25.30;53.20;;;;;;5071054;28;20048;-72
2023/10/24 02:10:32;;;;;;;11.30;4.63;;;25.10;53.20;;;;;;5056174;28;20376;-71
2023/10/24 02:12:58;;;;;;;9.38;4.80;;;25.00;53.10;;;;;;5072750;28;20433;-71
2023/10/24 02:15:26;;;;;;;9.07;4.35;;;25.30;53.10;;;;;;5075832;28;20119;-71
2023/10/24 02:17:52;;;;;;;7.53;4.68;;;25.20;53.10;;;;;;5093131;28;20181;-71
2023/10/24 02:20:18;;;;;;;10.90;4.55;;;25.10;53.10;;;;;;5096768;28;20034;-71
2023/10/24 02:22:49;;;;;;;9.98;4.82;;;25.00;53.10;;;;;;5089329;28;20050;-71
2023/10/24 02:25:16;;;;;;;10.88;4.57;;;25.00;53.20;;;;;;5104041;28;20052;-71
2023/10/24 02:27:42;;;;;;;10.77;5.00;;;24.90;53.20;;;;;;5095143;28;20040;-71
2023/10/24 02:30:08;;;;;;;9.95;4.90;;;25.00;53.20;;;;;;5096797;28;20028;-71
2023/10/24 02:32:34;;;;;;;9.60;4.88;;;25.00;53.20;;;;;;5098209;28;20028;-70
2023/10/24 02:35:00;;;;;;;10.50;5.78;;;25.00;53.20;;;;;;5075973;28;20459;-71
2023/10/24 02:37:26;;;;;;;14.13;5.82;;;25.00;53.20;;;;;;5076868;28;20403;-71
2023/10/24 02:39:52;;;;;;;10.63;5.15;;;25.10;53.30;;;;;;5076672;28;20047;-71
2023/10/24 02:42:19;;;;;;;12.73;5.63;;;25.00;53.30;;;;;;5059567;28;20447;-71
2023/10/24 02:44:49;;;;;;;12.75;4.95;;;24.90;53.30;;;;;;5097153;28;20028;-71
2023/10/24 02:47:15;;;;;;;8.85;5.75;;;24.90;53.30;;;;;;5076715;28;20043;-71
2023/10/24 02:49:41;;;;;;;11.13;4.72;;;25.10;53.30;;;;;;5076313;28;20038;-71
2023/10/24 02:52:07;;;;;;;8.65;5.32;;;25.00;53.30;;;;;;5094553;28;20067;-71
2023/10/24 02:54:33;;;;;;;8.48;5.03;;;25.00;53.30;;;;;;5079170;28;20020;-71
2023/10/24 02:56:59;;;;;;;8.60;5.22;;;25.00;53.30;;;;;;5096554;28;20032;-71
2023/10/24 02:59:25;;;;;;;13.50;5.45;;;25.00;53.30;;;;;;5071085;28;20031;-71
2023/10/24 03:01:51;;;;;;;11.65;5.10;;;25.10;53.30;;;;;;5096343;28;20028;-71
2023/10/24 03:04:17;;;;;;;12.75;5.10;;;25.00;53.30;;;;;;5078213;28;20054;-71
2023/10/24 03:06:43;;;;;;;9.65;4.95;;;25.10;53.30;;;;;;5094276;28;20143;-70
2023/10/24 03:09:10;;;;;;;10.63;4.80;;;25.00;53.30;;;;;;5076126;28;20020;-71
2023/10/24 03:11:37;;;;;;;9.48;5.40;;;25.00;53.20;;;;;;5076105;28;20048;-70
2023/10/24 03:14:03;;;;;;;11.10;4.65;;;25.00;53.20;;;;;;5096118;28;20044;-71
2023/10/24 03:16:29;;;;;;;7.95;4.20;;;25.00;53.20;;;;;;5112982;28;20088;-70
2023/10/24 03:18:56;;;;;;;10.40;4.40;;;25.10;53.20;;;;;;5075921;28;20862;-71
2023/10/24 03:21:22;;;;;;;7.45;4.30;;;25.00;53.20;;;;;;5071263;28;20048;-70
2023/10/24 03:23:48;;;;;;;8.57;5.30;;;24.90;53.20;;;;;;5085866;28;20036;-71
2023/10/24 03:26:14;;;;;;;9.77;5.35;;;25.00;53.20;;;;;;5075836;28;20188;-71
2023/10/24 03:28:40;;;;;;;15.32;5.10;;;24.90;53.20;;;;;;5054386;28;20067;-71
2023/10/24 03:31:08;;;;;;;8.60;4.80;;;25.00;53.30;;;;;;5073337;28;20511;-71
2023/10/24 03:33:37;;;;;;;7.60;4.78;;;25.00;53.30;;;;;;5032355;28;20048;-71
2023/10/24 03:36:03;;;;;;;8.82;4.88;;;24.90;53.40;;;;;;5050273;28;20102;-71
2023/10/24 03:38:30;;;;;;;10.20;4.95;;;24.90;53.40;;;;;;5017685;28;20745;-71
2023/10/24 03:40:56;;;;;;;9.45;4.55;;;24.90;53.40;;;;;;5034269;28;20086;-71
2023/10/24 03:43:22;;;;;;;10.82;4.47;;;24.90;53.40;;;;;;5028657;28;20037;-71
2023/10/24 03:45:48;;;;;;;9.50;4.65;;;24.80;53.40;;;;;;5042613;28;20786;-71
2023/10/24 03:48:15;;;;;;;8.45;4.75;;;24.90;53.40;;;;;;5034322;28;20357;-70
2023/10/24 03:50:41;;;;;;;7.97;4.70;;;24.80;53.40;;;;;;5033982;28;20060;-70
2023/10/24 03:53:07;;;;;;;13.48;5.28;;;24.90;53.40;;;;;;5048897;28;20053;-71
2023/10/24 03:55:34;;;;;;;9.55;4.80;;;24.80;53.40;;;;;;5033469;28;20496;-71
2023/10/24 03:58:00;;;;;;;13.18;5.07;;;24.90;53.40;;;;;;5038048;28;20036;-70
2023/10/24 04:00:26;;;;;;;7.97;4.97;;;24.90;53.40;;;;;;5061349;28;20036;-71
2023/10/24 04:02:54;;;;;;;12.60;4.50;;;24.90;53.40;;;;;;5053629;28;20031;-70
2023/10/24 04:05:20;;;;;;;11.40;5.28;;;25.00;53.30;;;;;;5085433;28;20036;-70
2023/10/24 04:07:47;;;;;;;12.15;5.00;;;24.90;53.30;;;;;;5113509;28;20038;-71
2023/10/24 04:10:15;;;;;;;8.70;5.20;;;24.80;53.20;;;;;;5113390;28;20027;-71
2023/10/24 04:12:41;;;;;;;9.90;5.43;;;24.90;53.30;;;;;;5111275;28;20474;-71
2023/10/24 04:15:08;;;;;;;14.20;5.15;;;24.90;53.30;;;;;;5083118;28;20357;-70
2023/10/24 04:17:34;;;;;;;7.72;4.65;;;24.80;53.30;;;;;;5113545;28;20032;-71
2023/10/24 04:20:00;;;;;;;8.07;4.72;;;25.00;53.40;;;;;;5113647;28;20027;-70
2023/10/24 04:22:27;;;;;;;12.40;5.75;;;25.00;53.30;;;;;;5079092;28;20051;-71
2023/10/24 04:24:53;;;;;;;11.98;5.35;;;24.80;53.20;;;;;;5086707;28;20414;-71
2023/10/24 04:27:19;;;;;;;11.75;5.35;;;24.90;53.30;;;;;;5074078;28;20028;-72
2023/10/24 04:29:46;;;;;;;8.52;4.43;;;24.70;53.30;;;;;;5076522;28;20043;-71
2023/10/24 04:32:13;;;;;;;6.72;4.47;;;24.80;53.30;;;;;;5073216;28;20481;-71
2023/10/24 04:34:39;;;;;;;7.80;4.00;;;24.90;53.40;;;;;;5082268;28;20028;-71
2023/10/24 04:37:05;;;;;;;12.07;4.45;;;24.80;53.40;;;;;;5071276;28;20560;-71
2023/10/24 04:39:31;;;;;;;6.65;4.20;;;24.90;53.40;;;;;;5081796;28;20443;-71
2023/10/24 04:41:57;;;;;;;8.98;4.97;;;24.80;53.30;;;;;;5076446;28;20058;-68
2023/10/24 04:44:23;;;;;;;6.28;4.30;;;24.80;53.30;;;;;;5085897;28;20058;-68
2023/10/24 04:46:50;;;;;;;3.83;1.65;;;24.90;53.10;;;;;;5078787;28;20032;-70
2023/10/24 04:49:16;;;;;;;3.78;1.67;;;25.00;53.30;;;;;;5090468;28;20060;-68
2023/10/24 04:51:43;;;;;;;2.47;2.28;;;25.10;50.30;;;;;;5073670;28;20043;-69
2023/10/24 04:54:09;;;;;;;6.35;2.58;;;25.30;52.10;;;;;;5075866;28;20631;-68
2023/10/24 04:56:35;;;;;;;4.25;2.45;;;25.20;52.60;;;;;;5083938;28;20060;-68
2023/10/24 04:59:02;;;;;;;2.40;1.85;;;25.30;52.80;;;;;;5078198;28;20059;-69
2023/10/24 05:01:28;;;;;;;9.10;2.97;;;25.40;51.20;;;;;;5087390;28;20491;-73
2023/10/24 05:03:54;;;;;;;9.93;4.15;;;25.50;51.10;;;;;;5072862;28;20051;-73
2023/10/24 05:06:20;;;;;;;6.13;4.15;;;25.60;53.50;;;;;;5087727;28;20146;-73
2023/10/24 05:08:46;;;;;;;5.57;3.33;;;25.50;52.80;;;;;;5074907;28;20047;-72
2023/10/24 05:11:12;;;;;;;5.63;4.53;;;25.50;52.70;;;;;;5075623;28;20086;-74
2023/10/24 05:13:38;;;;;;;6.47;5.47;;;25.50;52.10;;;;;;5089838;28;20084;-74
2023/10/24 05:16:04;;;;;;;13.73;9.52;;;25.40;51.10;;;;;;5089929;28;20111;-75
2023/10/24 05:18:30;;;;;;;6.05;4.40;;;25.50;49.10;;;;;;5091140;28;20316;-78
2023/10/24 05:20:56;;;;;;;8.80;5.63;;;25.50;49.50;;;;;;5092194;28;20039;-70
2023/10/24 05:23:22;;;;;;;10.68;5.10;;;25.60;55.80;;;;;;5090211;28;20460;-74
2023/10/24 05:25:50;;;;;;;14.60;5.78;;;25.50;53.60;;;;;;5058975;28;20103;-73
2023/10/24 05:28:16;;;;;;;10.35;5.05;;;25.60;53.20;;;;;;5070319;28;20472;-72
2023/10/24 05:30:42;;;;;;;12.38;6.38;;;25.60;53.30;;;;;;5056143;28;20116;-71
2023/10/24 05:33:08;;;;;;;12.07;6.45;;;25.40;53.50;;;;;;5049615;28;20036;-69
2023/10/24 05:35:34;;;;;;;13.90;6.32;;;25.60;53.50;;;;;;5052284;28;20393;-70
2023/10/24 05:38:00;;;;;;;18.73;6.28;;;25.50;53.70;;;;;;5033567;28;20045;-74
2023/10/24 05:40:26;;;;;;;14.07;6.22;;;25.50;53.70;;;;;;5051244;28;20047;-70
2023/10/24 05:42:52;;;;;;;17.15;7.55;;;25.40;53.80;;;;;;5051440;28;20037;-72
2023/10/24 05:45:18;;;;;;;10.93;7.38;;;25.60;53.70;;;;;;5052050;28;20025;-74
2023/10/24 05:47:44;;;;;;;15.65;7.32;;;25.30;53.90;;;;;;5033354;28;20083;-74
2023/10/24 05:50:11;;;;;;;14.68;7.28;;;25.40;53.80;;;;;;5051144;28;20072;-74
2023/10/24 05:52:37;;;;;;;12.45;6.13;;;25.40;53.90;;;;;;5051096;28;20072;-74
2023/10/24 05:55:03;;;;;;;14.80;7.07;;;25.40;54.00;;;;;;5050151;28;20084;-75
2023/10/24 05:57:29;;;;;;;14.40;6.45;;;25.30;54.10;;;;;;5057274;28;20025;-75
2023/10/24 05:59:56;;;;;;;22.77;7.13;;;25.40;54.20;;;;;;5062965;28;20099;-74
2023/10/24 06:02:22;;;;;;;18.23;8.05;;;25.30;54.20;;;;;;5054409;28;20041;-74
2023/10/24 06:04:48;;;;;;;13.75;7.00;;;25.30;54.00;;;;;;5045853;28;20040;-75
2023/10/24 06:07:18;;;;;;;19.48;7.35;;;25.40;54.00;;;;;;5058383;28;20654;-73
2023/10/24 06:09:44;;;;;;;20.30;8.25;;;25.40;54.00;;;;;;5070755;28;20036;-74
2023/10/24 06:12:10;;;;;;;22.95;8.00;;;25.30;54.00;;;;;;5070977;28;20404;-73
2023/10/24 06:14:37;;;;;;;14.60;8.02;;;25.40;54.00;;;;;;5065417;28;20060;-73
2023/10/24 06:17:03;;;;;;;22.38;7.85;;;25.40;53.90;;;;;;5070573;28;20029;-73
2023/10/24 06:19:29;;;;;;;16.35;8.43;;;25.30;53.90;;;;;;5070838;28;20032;-74
2023/10/24 06:21:55;;;;;;;14.52;7.70;;;25.40;53.90;;;;;;5070901;28;20041;-74
2023/10/24 06:24:21;;;;;;;19.55;8.75;;;25.30;54.00;;;;;;5074833;28;20032;-72
2023/10/24 06:26:47;;;;;;;18.38;9.00;;;25.40;53.90;;;;;;5111524;28;20028;-73
2023/10/24 06:29:13;;;;;;;12.85;5.80;;;25.50;54.00;;;;;;5079442;28;20020;-68
2023/10/24 06:31:39;;;;;;;7.13;4.57;;;25.40;53.90;;;;;;5081200;28;20035;-68
2023/10/24 06:34:06;;;;;;;4.82;3.10;;;25.40;55.70;;;;;;5092703;28;20093;-72
2023/10/24 06:36:34;;;;;;;8.27;3.00;;;25.50;56.50;;;;;;5110884;28;20036;-72
2023/10/24 06:39:02;;;;;;;6.40;2.53;;;25.50;56.00;;;;;;5110762;28;20121;-72
2023/10/24 06:41:28;;;;;;;8.18;2.53;;;25.40;55.40;;;;;;5109079;28;20061;-71
2023/10/24 06:43:54;;;;;;;6.07;2.67;;;25.40;55.10;;;;;;5108710;28;20498;-72
2023/10/24 06:46:20;;;;;;;19.30;8.00;;;25.60;55.00;;;;;;5111392;28;20043;-72
2023/10/24 06:48:46;;;;;;;7.78;3.03;;;25.40;54.90;;;;;;5110723;28;20056;-73
2023/10/24 06:51:12;;;;;;;6.05;2.80;;;25.40;54.30;;;;;;5078546;28;20031;-73
2023/10/24 06:53:38;;;;;;;8.02;2.65;;;25.60;54.50;;;;;;5109233;28;20107;-76
2023/10/24 06:56:05;;;;;;;17.63;9.25;;;25.50;54.10;;;;;;5111212;28;20364;-73
2023/10/24 06:58:31;;;;;;;22.30;9.98;;;25.50;54.00;;;;;;5054392;28;20089;-73
2023/10/24 07:00:58;;;;;;;23.42;10.20;;;25.40;53.80;;;;;;5030990;28;20192;-73
2023/10/24 07:03:24;;;;;;;15.23;8.23;;;25.50;53.70;;;;;;4988461;28;20046;-73
2023/10/24 07:05:51;;;;;;;17.67;9.55;;;25.40;53.60;;;;;;4999664;28;20060;-73
2023/10/24 07:08:17;;;;;;;19.77;8.40;;;25.60;53.60;;;;;;4988636;28;20065;-72
2023/10/24 07:10:44;;;;;;;13.00;6.53;;;25.50;53.50;;;;;;4992193;28;20042;-73
2023/10/24 07:13:11;;;;;;;9.38;4.60;;;25.50;53.50;;;;;;4968784;28;20042;-72
2023/10/24 07:15:38;;;;;;;12.07;6.75;;;25.60;53.50;;;;;;5011656;28;20473;-73
2023/10/24 07:18:05;;;;;;;4.35;3.20;;;25.50;53.40;;;;;;5011814;28;20083;-73
2023/10/24 07:20:38;;;;;;;5.72;4.20;;;25.50;53.40;;;;;;4995432;28;20061;-72
2023/10/24 07:23:05;;;;;;;16.30;8.07;;;25.50;53.40;;;;;;4991717;28;20046;-72
2023/10/24 07:25:32;;;;;;;6.47;3.97;;;25.60;53.40;;;;;;4990723;28;20833;-72
2023/10/24 07:27:58;;;;;;;20.95;7.72;;;25.50;53.40;;;;;;4991650;28;20046;-73
2023/10/24 07:30:24;;;;;;;16.13;7.88;;;25.70;53.40;;;;;;5024348;28;20148;-73
2023/10/24 07:32:54;;;;;;;10.15;4.53;;;25.70;53.30;;;;;;5030893;28;20046;-73
2023/10/24 07:35:21;;;;;;;9.82;5.45;;;25.60;53.20;;;;;;5007105;28;20042;-72
2023/10/24 07:37:48;;;;;;;6.35;4.10;;;25.50;53.10;;;;;;5027699;28;20052;-72
2023/10/24 07:40:14;;;;;;;17.20;8.10;;;25.60;53.00;;;;;;5009587;28;20053;-73
2023/10/24 07:42:40;;;;;;;11.63;7.40;;;25.50;53.00;;;;;;5011033;28;21052;-74
2023/10/24 07:45:07;;;;;;;13.75;6.82;;;25.40;52.80;;;;;;4995189;28;20049;-72
2023/10/24 07:47:33;;;;;;;10.73;6.85;;;25.50;53.00;;;;;;5011185;28;20042;-74
2023/10/24 07:49:59;;;;;;;19.83;7.50;;;25.50;53.00;;;;;;5010902;28;20049;-71
2023/10/24 07:52:25;;;;;;;17.17;7.85;;;25.50;53.00;;;;;;5011198;28;20034;-74
2023/10/24 07:54:51;;;;;;;19.45;8.18;;;25.60;53.00;;;;;;5043294;28;20053;-76
2023/10/24 07:57:17;;;;;;;21.02;7.78;;;25.30;52.90;;;;;;5048693;28;20036;-73
2023/10/24 07:59:43;;;;;;;18.02;6.80;;;25.40;52.80;;;;;;5032874;28;20042;-72
2023/10/24 08:02:09;;;;;;;14.43;7.10;;;25.30;52.80;;;;;;5050910;28;20507;-75
2023/10/24 08:04:35;;;;;;;19.17;7.85;;;25.30;52.70;;;;;;5050665;28;20112;-74
2023/10/24 08:07:03;;;;;;;18.77;7.05;;;25.30;52.70;;;;;;5063289;28;20150;-75
2023/10/24 08:09:29;;;;;;;11.15;6.40;;;25.30;52.70;;;;;;5079345;28;20118;-75
2023/10/24 08:11:55;;;;;;;8.80;5.75;;;25.30;52.70;;;;;;5091169;28;20077;-75
2023/10/24 08:14:21;;;;;;;11.07;4.60;;;25.30;52.70;;;;;;5110473;28;20039;-75
2023/10/24 08:16:47;;;;;;;4.93;3.13;;;25.30;52.70;;;;;;5094161;28;20157;-74
2023/10/24 08:19:13;;;;;;;9.13;4.78;;;25.30;52.80;;;;;;5113742;28;20028;-75
2023/10/24 08:21:39;;;;;;;10.57;5.88;;;25.20;52.80;;;;;;5088257;28;20024;-74
2023/10/24 08:24:05;;;;;;;11.90;6.07;;;25.30;52.80;;;;;;5101162;28;20431;-75
2023/10/24 08:26:31;;;;;;;14.70;6.53;;;25.30;52.90;;;;;;5070494;28;20119;-76
2023/10/24 08:28:57;;;;;;;10.93;5.68;;;25.20;52.80;;;;;;5074276;28;20103;-72
2023/10/24 08:31:23;;;;;;;9.63;5.88;;;25.10;52.50;;;;;;5107051;28;20038;-74
2023/10/24 08:33:49;;;;;;;12.25;5.82;;;25.20;52.50;;;;;;5079511;28;20584;-75
2023/10/24 08:36:15;;;;;;;10.30;5.75;;;25.10;52.60;;;;;;5111211;28;20119;-75
2023/10/24 08:38:41;;;;;;;7.95;5.15;;;25.30;52.80;;;;;;5103462;28;20035;-68
2023/10/24 08:41:07;;;;;;;5.03;3.42;;;25.30;53.00;;;;;;5074306;28;20032;-68
2023/10/24 08:43:34;;;;;;;7.57;3.40;;;25.20;53.00;;;;;;5093493;28;20116;-66
2023/10/24 08:46:01;;;;;;;6.53;3.08;;;25.20;53.10;;;;;;5073139;28;20048;-68
2023/10/24 08:48:31;;;;;;;5.32;3.17;;;25.10;53.00;;;;;;5074181;28;20978;-71
2023/10/24 08:50:57;;;;;;;8.25;3.95;;;25.20;53.30;;;;;;5092524;28;20032;-70
2023/10/24 08:53:23;;;;;;;9.27;3.70;;;25.30;53.40;;;;;;5040016;28;20072;-71
2023/10/24 08:55:51;;;;;;;7.38;3.60;;;25.30;52.80;;;;;;5101520;28;20028;-71
2023/10/24 08:58:19;;;;;;;8.30;3.50;;;25.30;52.00;;;;;;5093038;28;20070;-71
2023/10/24 09:00:46;;;;;;;5.07;3.80;;;25.30;51.20;;;;;;5091959;28;20035;-70
2023/10/24 09:03:16;;;;;;;6.00;3.88;;;25.40;50.60;;;;;;5091667;28;20036;-69
2023/10/24 09:05:45;;;;;;;6.75;3.78;;;25.30;50.30;;;;;;5099354;28;20435;-70
2023/10/24 09:08:12;;;;;;;4.40;3.47;;;25.40;50.10;;;;;;5112176;28;20027;-74
2023/10/24 09:10:39;;;;;;;5.47;3.95;;;25.30;49.70;;;;;;5111480;28;20032;-71
2023/10/24 09:13:08;;;;;;;6.55;3.85;;;25.40;49.30;;;;;;5092456;28;20043;-71
2023/10/24 09:15:34;;;;;;;8.43;4.93;;;25.30;48.90;;;;;;5073085;28;20050;-73
2023/10/24 09:18:04;;;;;;;7.05;3.88;;;25.40;48.60;;;;;;5056503;28;20123;-74
2023/10/24 09:20:34;;;;;;;7.35;4.43;;;25.30;48.30;;;;;;5091660;28;20089;-70
2023/10/24 09:23:07;;;;;;;6.28;3.92;;;25.40;47.70;;;;;;5091502;28;20024;-66
2023/10/24 09:25:34;;;;;;;11.10;5.68;;;25.40;47.70;;;;;;5092204;28;20098;-69
2023/10/24 09:28:16;;;;;;;7.75;4.00;;;25.50;49.10;;;;;;5091588;28;20093;-70
2023/10/24 09:30:42;;;;;;;9.95;5.00;;;25.50;48.00;;;;;;5091628;28;20047;-72
2023/10/24 09:33:08;;;;;;;24.38;5.88;;;25.60;47.90;;;;;;5091710;28;20054;-71
2023/10/24 09:35:38;;;;;;;13.00;5.80;;;25.70;48.80;;;;;;5092204;28;20039;-71
2023/10/24 09:38:08;;;;;;;9.32;4.32;;;25.90;50.40;;;;;;5091651;28;20043;-75
2023/10/24 09:40:39;;;;;;;8.43;4.50;;;25.80;47.40;;;;;;5093076;28;20066;-77
2023/10/24 09:43:17;;;;;;;7.10;4.03;;;25.70;46.40;;;;;;5110458;28;20041;-77
2023/10/24 09:45:44;;;;;;;6.18;3.53;;;25.80;46.20;;;;;;5111774;28;20020;-76
2023/10/24 09:48:15;;;;;;;10.85;5.25;;;25.70;46.20;;;;;;5111915;28;20028;-75
2023/10/24 09:50:42;;;;;;;11.68;4.20;;;25.70;46.30;;;;;;5093221;28;20509;-73
2023/10/24 09:53:09;;;;;;;11.23;4.93;;;25.70;46.60;;;;;;5111039;28;20028;-73
2023/10/24 09:55:41;;;;;;;8.13;4.60;;;25.70;46.90;;;;;;5110264;28;20040;-72
2023/10/24 09:58:11;;;;;;;12.68;5.80;;;25.70;47.20;;;;;;5091701;28;20059;-79
2023/10/24 10:00:37;;;;;;;7.57;3.45;;;25.80;47.40;;;;;;5072937;28;20036;-75
2023/10/24 10:03:04;;;;;;;10.52;4.63;;;25.60;47.60;;;;;;5093075;28;20499;-75
2023/10/24 10:05:31;;;;;;;9.52;4.30;;;25.70;47.60;;;;;;5069779;28;20084;-74
2023/10/24 10:07:59;;;;;;;10.77;4.75;;;25.70;47.70;;;;;;5073251;28;20031;-74
2023/10/24 10:10:25;;;;;;;9.80;5.18;;;25.70;47.60;;;;;;5092038;28;20032;-74
2023/10/24 10:12:59;;;;;;;6.43;4.10;;;25.80;47.70;;;;;;5092057;28;20481;-74
2023/10/24 10:15:37;;;;;;;6.70;4.60;;;25.70;47.80;;;;;;5093437;28;20518;-74
2023/10/24 10:18:31;;;;;;;8.48;4.90;;;25.80;47.70;;;;;;5081348;28;20382;-73
2023/10/24 10:21:23;;;;;;;28.15;6.88;;;26.00;53.40;;;;;;5098959;28;20031;-76
2023/10/24 10:24:04;;;;;;;17.67;6.45;;;26.40;53.20;;;;;;5100001;28;20772;-74
2023/10/24 10:26:57;;;;;;;16.45;4.85;;;27.10;54.00;;;;;;5107450;28;20165;-74
2023/10/24 10:29:42;;;;;;;17.85;5.22;;;27.10;47.20;;;;;;5107741;28;20019;-72
2023/10/24 10:32:36;;;;;;;11.05;4.07;;;26.80;47.20;;;;;;5107495;28;20407;-72
2023/10/24 10:35:02;;;;;;;7.45;3.67;;;26.60;49.20;;;;;;5090958;28;20040;-74
2023/10/24 10:37:34;;;;;;;13.00;3.80;;;26.60;49.30;;;;;;5073489;28;20107;-73
2023/10/24 10:40:15;;;;;;;7.32;3.30;;;26.60;49.50;;;;;;5049259;28;20617;-74
2023/10/24 10:42:48;;;;;;;8.77;3.53;;;26.50;49.50;;;;;;5052433;28;20147;-72
2023/10/24 10:45:31;;;;;;;9.10;4.15;;;26.40;49.50;;;;;;5052504;28;20041;-73
2023/10/24 10:48:02;;;;;;;9.77;3.55;;;26.50;49.70;;;;;;5052388;28;20032;-74
2023/10/24 10:50:33;;;;;;;5.88;3.83;;;26.50;49.80;;;;;;5052112;28;20048;-70
2023/10/24 10:53:32;;;;;;;7.45;3.85;;;26.40;49.90;;;;;;5035333;28;20033;-74
2023/10/24 10:56:18;;;;;;;13.45;4.50;;;26.50;50.50;;;;;;5052110;28;20513;-73
2023/10/24 10:59:06;;;;;;;10.70;4.90;;;26.70;51.90;;;;;;5051986;28;20068;-72
2023/10/24 11:01:53;;;;;;;8.70;4.38;;;26.90;52.80;;;;;;5035218;28;20068;-73
2023/10/24 11:04:19;;;;;;;6.93;3.80;;;27.30;53.10;;;;;;5052181;28;20032;-73
2023/10/24 11:06:52;;;;;;;7.70;3.95;;;27.10;49.80;;;;;;5035360;28;20137;-75
2023/10/24 11:09:20;;;;;;;4.82;3.47;;;27.00;50.40;;;;;;5052058;28;20041;-74
2023/10/24 11:11:47;;;;;;;6.57;3.67;;;26.90;49.70;;;;;;5086667;28;20365;-74
2023/10/24 11:14:14;;;;;;;12.13;3.80;;;27.00;50.20;;;;;;5094408;28;20043;-74
2023/10/24 11:16:42;;;;;;;7.43;3.28;;;26.90;49.40;;;;;;5094546;28;20056;-75
2023/10/24 11:19:17;;;;;;;4.45;3.35;;;26.90;49.40;;;;;;5094742;28;20072;-75
2023/10/24 11:21:45;;;;;;;4.60;2.80;;;26.80;49.30;;;;;;5094283;28;20036;-75
2023/10/24 11:24:20;;;;;;;6.63;2.97;;;26.80;49.30;;;;;;5094339;28;20123;-74
2023/10/24 11:26:47;;;;;;;3.53;2.47;;;26.80;49.20;;;;;;5094143;28;20036;-75
2023/10/24 11:29:13;;;;;;;5.35;3.60;;;26.70;49.20;;;;;;5097472;28;20125;-75
2023/10/24 11:31:41;;;;;;;8.63;3.63;;;26.80;49.10;;;;;;5095782;28;20046;-72
2023/10/24 11:34:10;;;;;;;8.25;4.20;;;26.70;49.30;;;;;;5114654;28;20490;-75
2023/10/24 11:36:36;;;;;;;8.57;4.13;;;26.80;49.50;;;;;;5096247;28;20149;-76
2023/10/24 11:39:04;;;;;;;10.07;3.83;;;26.70;48.10;;;;;;5070960;28;20040;-76
2023/10/24 11:41:30;;;;;;;6.38;3.70;;;26.80;48.80;;;;;;5054611;28;20044;-76
2023/10/24 11:43:56;;;;;;;5.20;3.20;;;26.80;47.90;;;;;;5067210;28;20042;-76
2023/10/24 11:46:21;;;;;;;6.63;3.63;;;26.80;47.70;;;;;;5070988;28;20024;-77
2023/10/24 11:48:47;;;;;;;9.00;3.42;;;26.80;47.20;;;;;;5071344;28;20044;-77
2023/10/24 11:51:15;;;;;;;8.70;3.28;;;26.80;47.20;;;;;;5068955;28;20131;-74
2023/10/24 11:53:41;;;;;;;5.75;3.25;;;26.90;51.00;;;;;;5070340;28;20056;-76
2023/10/24 11:56:08;;;;;;;6.97;2.78;;;26.80;49.80;;;;;;5070592;28;20047;-76
2023/10/24 11:58:34;;;;;;;4.75;3.13;;;26.80;49.50;;;;;;5053774;28;20037;-75
2023/10/24 12:01:01;;;;;;;11.52;3.00;;;26.80;49.40;;;;;;5050666;28;20032;-72
2023/10/24 12:03:47;;;;;;;4.93;2.90;;;26.80;49.40;;;;;;5067428;28;20041;-72
2023/10/24 12:06:18;;;;;;;5.20;2.90;;;26.80;49.30;;;;;;5062274;28;20508;-71
2023/10/24 12:08:44;;;;;;;5.80;2.92;;;26.80;49.20;;;;;;5070344;28;20028;-69
2023/10/24 12:11:10;;;;;;;6.32;3.33;;;26.80;49.20;;;;;;5093919;28;20047;-69
2023/10/24 12:13:36;;;;;;;5.88;2.15;;;26.80;49.10;;;;;;5113431;28;20035;-69
2023/10/24 12:16:03;;;;;;;3.95;2.67;;;26.80;49.00;;;;;;5060173;28;20055;-69
2023/10/24 12:18:31;;;;;;;5.28;3.42;;;26.80;48.80;;;;;;5113274;28;20127;-68
2023/10/24 12:20:58;;;;;;;5.95;3.00;;;26.50;48.60;;;;;;5113310;28;20035;-65
2023/10/24 12:23:25;;;;;;;6.88;2.80;;;26.60;48.60;;;;;;5113155;28;20428;-71
2023/10/24 12:25:52;;;;;;;4.30;2.83;;;26.60;48.50;;;;;;5077853;28;20056;-69
2023/10/24 12:28:18;;;;;;;5.25;2.67;;;26.60;48.60;;;;;;5113458;28;20032;-70
2023/10/24 12:30:44;;;;;;;5.20;2.67;;;26.50;48.50;;;;;;5096684;28;20036;-71
2023/10/24 12:33:11;;;;;;;5.15;2.67;;;26.50;48.50;;;;;;5092989;28;20036;-70
2023/10/24 12:35:37;;;;;;;4.35;2.55;;;26.50;48.80;;;;;;5092832;28;20044;-72
2023/10/24 12:38:03;;;;;;;4.63;3.20;;;26.50;48.80;;;;;;5093025;28;20036;-72
2023/10/24 12:40:29;;;;;;;4.80;2.70;;;26.40;49.30;;;;;;5074983;28;20411;-72
2023/10/24 12:42:55;;;;;;;6.13;3.10;;;26.40;50.90;;;;;;5092700;28;20039;-73
2023/10/24 12:45:21;;;;;;;6.07;3.30;;;26.50;51.70;;;;;;5092722;28;20036;-71